Time;durP1;ratioP1;P1;durP2;ratioP2;P2;SDS_P1;SDS_P2;PMS_P1;PMS_P2;Temp;Humidity;BMP_temperature;BMP_pressure;BME280_temperature;BME280_humidity;BME280_pressure;Samples;Min_cycle;Max_cycle;Signal;HPM_P1;HPM_P2
2022/11/26 00:02:21;;;;;;;9.38;3.60;;;5.20;99.90;;;;;;4702253;30;20054;-83
2022/11/26 00:04:49;;;;;;;5.22;3.88;;;5.20;99.90;;;;;;4686404;30;20501;-83
2022/11/26 00:07:21;;;;;;;3.28;2.53;;;5.10;99.90;;;;;;4672078;30;20057;-83
2022/11/26 00:09:49;;;;;;;13.32;4.45;;;5.10;99.90;;;;;;4658149;30;20061;-83
2022/11/26 00:12:19;;;;;;;4.82;4.35;;;5.10;99.90;;;;;;4686084;30;20065;-84
2022/11/26 00:14:47;;;;;;;4.10;3.00;;;5.10;99.90;;;;;;4686561;30;20049;-83
2022/11/26 00:17:15;;;;;;;4.65;3.00;;;5.10;99.90;;;;;;4685752;30;20553;-80
2022/11/26 00:19:43;;;;;;;9.98;5.15;;;5.20;99.90;;;;;;4699674;30;20065;-80
2022/11/26 00:22:32;;;;;;;7.53;5.25;;;5.10;99.90;;;;;;4700670;30;20069;-83
2022/11/26 00:24:59;;;;;;;7.00;3.00;;;5.10;99.90;;;;;;4699703;30;20049;-83
2022/11/26 00:27:27;;;;;;;6.53;3.42;;;5.10;99.90;;;;;;4700511;30;20068;-83
2022/11/26 00:29:55;;;;;;;10.93;3.38;;;5.10;99.90;;;;;;4685302;30;20057;-83
2022/11/26 00:32:25;;;;;;;2.85;2.65;;;5.00;99.90;;;;;;4684814;30;20050;-83
2022/11/26 00:34:53;;;;;;;4.57;3.95;;;5.10;99.90;;;;;;4685633;30;20061;-83
2022/11/26 00:37:24;;;;;;;6.70;3.72;;;5.10;99.90;;;;;;4684965;30;20520;-83
2022/11/26 00:39:52;;;;;;;5.72;3.45;;;5.10;99.90;;;;;;4699731;30;20766;-83
2022/11/26 00:42:20;;;;;;;5.20;3.50;;;5.10;99.90;;;;;;4685213;30;20066;-83
2022/11/26 00:44:47;;;;;;;4.53;3.28;;;5.10;99.90;;;;;;4685368;30;20057;-83
2022/11/26 00:47:14;;;;;;;4.10;2.92;;;5.10;99.90;;;;;;4701083;30;20052;-83
2022/11/26 00:49:42;;;;;;;3.20;2.90;;;5.10;99.90;;;;;;4700502;30;20493;-83
2022/11/26 00:52:31;;;;;;;6.65;3.00;;;5.10;99.90;;;;;;4685327;30;20053;-83
2022/11/26 00:55:35;;;;;;;2.35;2.15;;;5.20;99.90;;;;;;4685548;30;20599;-84
2022/11/26 00:58:05;;;;;;;10.45;4.72;;;5.20;99.90;;;;;;4668017;30;20058;-84
2022/11/26 01:00:34;;;;;;;7.43;4.07;;;5.20;99.90;;;;;;4682340;30;20418;-83
2022/11/26 01:03:01;;;;;;;9.07;3.08;;;5.30;99.90;;;;;;4695571;30;20065;-83
2022/11/26 01:05:32;;;;;;;8.93;3.10;;;5.30;99.90;;;;;;4671366;30;20060;-84
2022/11/26 01:08:18;;;;;;;3.88;3.05;;;5.30;99.90;;;;;;4685319;30;20610;-83
2022/11/26 01:10:45;;;;;;;4.00;2.78;;;5.20;99.90;;;;;;4701250;30;20065;-83
2022/11/26 01:13:13;;;;;;;3.67;3.20;;;5.30;99.90;;;;;;4685163;30;20062;-83
2022/11/26 01:15:40;;;;;;;3.38;3.13;;;5.30;99.90;;;;;;4670863;30;20049;-84
2022/11/26 01:18:13;;;;;;;5.22;3.28;;;5.30;99.90;;;;;;4685425;30;20443;-83
2022/11/26 01:20:41;;;;;;;7.15;3.70;;;5.30;99.90;;;;;;4699367;30;20053;-84
2022/11/26 01:23:12;;;;;;;3.20;2.90;;;5.20;99.90;;;;;;4670806;30;20049;-84
2022/11/26 01:25:40;;;;;;;3.80;3.45;;;5.20;99.90;;;;;;4670438;30;21181;-84
2022/11/26 01:28:13;;;;;;;4.50;3.45;;;5.20;99.90;;;;;;4682133;30;20046;-83
2022/11/26 01:30:41;;;;;;;4.43;3.30;;;5.30;99.90;;;;;;4682491;30;20066;-84
2022/11/26 01:33:09;;;;;;;4.28;3.25;;;5.30;99.90;;;;;;4681251;30;20068;-83
2022/11/26 01:35:37;;;;;;;4.95;3.47;;;5.30;99.90;;;;;;4683024;30;20057;-84
2022/11/26 01:38:04;;;;;;;8.20;4.25;;;5.30;99.90;;;;;;4682031;30;20070;-84
2022/11/26 01:40:53;;;;;;;4.90;3.55;;;5.30;99.90;;;;;;4681832;30;20054;-84
2022/11/26 01:43:48;;;;;;;3.50;2.72;;;5.30;99.90;;;;;;4681648;30;20882;-84
2022/11/26 01:46:17;;;;;;;7.22;2.78;;;5.30;99.90;;;;;;4682087;30;20410;-83
2022/11/26 01:48:47;;;;;;;2.30;2.10;;;5.30;99.90;;;;;;4695677;30;20055;-84
2022/11/26 01:51:20;;;;;;;4.03;3.10;;;5.20;99.90;;;;;;4695842;30;20057;-84
2022/11/26 01:53:58;;;;;;;3.08;2.45;;;5.30;99.90;;;;;;4681334;30;20058;-83
2022/11/26 01:56:39;;;;;;;2.63;2.42;;;5.20;99.90;;;;;;4696190;30;20050;-83
2022/11/26 01:59:21;;;;;;;3.67;3.47;;;5.20;99.90;;;;;;4695690;30;20061;-83
2022/11/26 02:01:51;;;;;;;4.18;2.65;;;5.20;99.90;;;;;;4696432;30;20057;-83
2022/11/26 02:04:23;;;;;;;4.60;2.65;;;5.20;99.90;;;;;;4681397;30;20058;-84
2022/11/26 02:06:52;;;;;;;4.43;2.97;;;5.20;99.90;;;;;;4696080;30;20054;-81
2022/11/26 02:09:19;;;;;;;4.40;2.30;;;5.20;99.90;;;;;;4680932;30;20058;-83
2022/11/26 02:11:47;;;;;;;9.30;3.17;;;5.10;99.90;;;;;;4682206;30;20053;-83
2022/11/26 02:14:27;;;;;;;7.20;2.92;;;5.10;99.90;;;;;;4667081;30;20062;-83
2022/11/26 02:17:13;;;;;;;3.15;2.92;;;5.10;99.90;;;;;;4649077;30;20063;-83
2022/11/26 02:20:17;;;;;;;6.05;2.92;;;5.10;99.90;;;;;;4665036;30;20042;-83
2022/11/26 02:23:18;;;;;;;6.93;3.33;;;5.10;99.90;;;;;;4665557;30;20069;-83
2022/11/26 02:26:04;;;;;;;2.53;2.33;;;5.10;99.90;;;;;;4663907;30;20058;-83
2022/11/26 02:28:49;;;;;;;11.80;3.90;;;5.10;99.90;;;;;;4680973;30;20046;-83
2022/11/26 02:31:28;;;;;;;3.42;3.13;;;5.10;99.90;;;;;;4666897;30;20073;-83
2022/11/26 02:34:11;;;;;;;3.05;2.75;;;5.00;99.90;;;;;;4681490;30;20065;-83
2022/11/26 02:36:59;;;;;;;3.72;3.10;;;5.00;99.90;;;;;;4682060;30;20050;-83
2022/11/26 02:39:28;;;;;;;6.68;4.07;;;5.00;99.90;;;;;;4680763;30;20061;-83
2022/11/26 02:41:59;;;;;;;6.90;3.15;;;4.90;99.90;;;;;;4681411;30;20069;-83
2022/11/26 02:44:36;;;;;;;8.20;3.13;;;4.90;99.90;;;;;;4665930;30;20070;-83
2022/11/26 02:47:09;;;;;;;3.05;2.80;;;4.90;99.90;;;;;;4652283;30;20437;-83
2022/11/26 02:49:39;;;;;;;3.95;2.67;;;4.90;99.90;;;;;;4666795;30;20066;-83
2022/11/26 02:52:10;;;;;;;3.40;3.03;;;4.90;99.90;;;;;;4666579;30;20061;-83
2022/11/26 02:54:39;;;;;;;3.50;3.17;;;4.80;99.90;;;;;;4666930;30;20069;-83
2022/11/26 02:57:11;;;;;;;4.20;3.45;;;4.90;99.90;;;;;;4666258;30;20065;-84
2022/11/26 02:59:39;;;;;;;4.75;2.30;;;4.80;99.90;;;;;;4680790;30;20046;-84
2022/11/26 03:02:13;;;;;;;3.50;3.20;;;4.90;99.90;;;;;;4672474;30;20058;-84
2022/11/26 03:04:46;;;;;;;4.55;2.80;;;4.80;99.90;;;;;;4684661;30;20057;-84
2022/11/26 03:07:13;;;;;;;3.42;2.75;;;4.80;99.90;;;;;;4686732;30;20054;-84
2022/11/26 03:09:58;;;;;;;3.83;2.45;;;4.90;99.90;;;;;;4672932;30;20068;-83
2022/11/26 03:12:27;;;;;;;4.57;2.40;;;4.80;99.90;;;;;;4702254;30;20061;-83
2022/11/26 03:14:54;;;;;;;7.85;3.13;;;4.80;99.90;;;;;;4687558;30;20064;-83
2022/11/26 03:17:22;;;;;;;4.95;3.08;;;4.80;99.90;;;;;;4701262;30;20505;-84
2022/11/26 03:19:49;;;;;;;9.50;2.53;;;4.80;99.90;;;;;;4672380;30;20781;-83
2022/11/26 03:22:16;;;;;;;3.03;2.67;;;4.80;99.90;;;;;;4687107;30;20072;-84
2022/11/26 03:24:44;;;;;;;2.85;2.65;;;4.80;99.90;;;;;;4686836;30;20143;-84
2022/11/26 03:27:11;;;;;;;6.68;2.63;;;4.70;99.90;;;;;;4700989;30;20497;-83
2022/11/26 03:29:38;;;;;;;2.67;2.42;;;4.70;99.90;;;;;;4703045;30;20061;-83
2022/11/26 03:32:06;;;;;;;6.15;3.40;;;4.70;99.90;;;;;;4672699;30;20412;-84
2022/11/26 03:34:33;;;;;;;3.03;2.75;;;4.70;99.90;;;;;;4686768;30;20061;-84
2022/11/26 03:37:01;;;;;;;5.47;3.58;;;4.70;99.90;;;;;;4686232;30;20057;-83
2022/11/26 03:39:28;;;;;;;5.18;2.95;;;4.70;99.90;;;;;;4686647;30;20386;-83
2022/11/26 03:41:55;;;;;;;3.60;3.30;;;4.70;99.90;;;;;;4686872;30;20065;-83
2022/11/26 03:44:23;;;;;;;3.05;2.72;;;4.60;99.90;;;;;;4701731;30;20057;-83
2022/11/26 03:46:50;;;;;;;3.35;3.08;;;4.70;99.90;;;;;;4686846;30;20069;-83
2022/11/26 03:49:17;;;;;;;7.63;2.38;;;4.70;99.90;;;;;;4701942;30;20053;-83
2022/11/26 03:51:45;;;;;;;8.63;2.53;;;4.70;99.90;;;;;;4701969;30;20493;-83
2022/11/26 03:54:12;;;;;;;3.05;2.50;;;4.70;99.90;;;;;;4686734;30;20066;-83
2022/11/26 03:56:39;;;;;;;3.40;3.10;;;4.70;99.90;;;;;;4700834;30;20401;-84
2022/11/26 03:59:07;;;;;;;2.45;2.25;;;4.70;99.90;;;;;;4671757;30;20509;-84
2022/11/26 04:01:34;;;;;;;9.45;3.42;;;4.70;99.90;;;;;;4686779;30;20061;-84
2022/11/26 04:04:02;;;;;;;10.88;4.15;;;4.70;99.90;;;;;;4685809;30;20050;-84
2022/11/26 04:06:29;;;;;;;6.53;3.00;;;4.70;99.90;;;;;;4672126;30;20065;-83
2022/11/26 04:08:56;;;;;;;3.53;2.97;;;4.70;99.90;;;;;;4671774;30;20057;-83
2022/11/26 04:11:24;;;;;;;3.67;2.40;;;4.70;99.90;;;;;;4671890;30;20053;-84
2022/11/26 04:13:51;;;;;;;3.40;2.40;;;4.60;99.90;;;;;;4672202;30;20065;-84
2022/11/26 04:16:19;;;;;;;6.20;4.20;;;4.60;99.90;;;;;;4697616;30;20408;-84
2022/11/26 04:18:47;;;;;;;5.13;3.78;;;4.60;99.90;;;;;;4686284;30;20061;-84
2022/11/26 04:21:14;;;;;;;2.55;2.35;;;4.60;99.90;;;;;;4686128;30;20050;-84
2022/11/26 04:23:41;;;;;;;5.20;4.47;;;4.60;99.90;;;;;;4685878;30;20056;-84
2022/11/26 04:26:13;;;;;;;6.40;2.83;;;4.60;99.90;;;;;;4671317;30;20069;-84
2022/11/26 04:28:40;;;;;;;3.13;2.75;;;4.60;99.90;;;;;;4684108;30;20050;-84
2022/11/26 04:31:07;;;;;;;7.05;3.05;;;4.60;99.90;;;;;;4683950;30;20065;-83
2022/11/26 04:33:35;;;;;;;9.52;3.35;;;4.60;99.90;;;;;;4668988;30;20062;-83
2022/11/26 04:36:03;;;;;;;4.93;3.67;;;4.70;99.90;;;;;;4654174;30;20050;-84
2022/11/26 04:38:30;;;;;;;9.75;4.25;;;4.70;99.90;;;;;;4654902;30;20049;-84
2022/11/26 04:40:57;;;;;;;4.88;4.22;;;4.70;99.90;;;;;;4654314;30;20399;-84
2022/11/26 04:43:25;;;;;;;9.75;2.95;;;4.70;99.90;;;;;;4654214;30;20049;-83
2022/11/26 04:45:52;;;;;;;4.20;2.75;;;4.80;99.90;;;;;;4684272;30;20053;-84
2022/11/26 04:48:20;;;;;;;5.85;3.83;;;4.80;99.90;;;;;;4654368;30;20494;-84
2022/11/26 04:50:49;;;;;;;8.73;4.28;;;4.80;99.90;;;;;;4669057;30;20053;-83
2022/11/26 04:53:20;;;;;;;4.47;3.38;;;4.80;99.90;;;;;;4668409;30;20054;-84
2022/11/26 04:55:51;;;;;;;6.18;3.35;;;4.90;99.90;;;;;;4683571;30;20053;-84
2022/11/26 04:58:19;;;;;;;5.28;3.38;;;4.90;99.90;;;;;;4668609;30;20077;-84
2022/11/26 05:00:47;;;;;;;9.48;3.20;;;4.90;99.90;;;;;;4668643;30;20098;-83
2022/11/26 05:03:18;;;;;;;7.20;3.90;;;4.90;99.90;;;;;;4668670;30;20062;-83
2022/11/26 05:05:46;;;;;;;7.75;3.78;;;5.00;99.90;;;;;;4683089;30;20057;-83
2022/11/26 05:08:13;;;;;;;3.13;2.65;;;5.00;99.90;;;;;;4682354;30;20058;-84
2022/11/26 05:10:40;;;;;;;3.20;2.60;;;5.00;99.90;;;;;;4682739;30;20516;-83
2022/11/26 05:13:08;;;;;;;7.63;4.03;;;5.10;99.90;;;;;;4681861;30;20421;-83
2022/11/26 05:15:35;;;;;;;7.82;4.15;;;5.00;99.90;;;;;;4667867;30;20042;-84
2022/11/26 05:18:03;;;;;;;5.72;5.28;;;5.00;99.90;;;;;;4682739;30;20414;-83
2022/11/26 05:20:30;;;;;;;3.65;3.42;;;5.00;99.90;;;;;;4667812;30;20399;-83
2022/11/26 05:22:57;;;;;;;11.20;4.57;;;5.00;99.90;;;;;;4683608;30;20069;-84
2022/11/26 05:25:25;;;;;;;5.13;2.75;;;5.00;99.90;;;;;;4681652;30;20057;-84
2022/11/26 05:27:52;;;;;;;16.13;4.85;;;4.90;99.90;;;;;;4678967;30;20042;-84
2022/11/26 05:30:20;;;;;;;4.82;2.75;;;4.90;99.90;;;;;;4700735;30;20057;-83
2022/11/26 05:32:47;;;;;;;11.13;4.38;;;4.90;99.90;;;;;;4699036;30;20065;-84
2022/11/26 05:35:14;;;;;;;4.95;3.13;;;4.90;99.90;;;;;;4700302;30;20061;-83
2022/11/26 05:37:42;;;;;;;4.72;3.17;;;4.90;99.90;;;;;;4699180;30;20069;-83
2022/11/26 05:40:10;;;;;;;5.28;3.60;;;4.90;99.90;;;;;;4684422;30;20054;-83
2022/11/26 05:42:38;;;;;;;6.25;3.83;;;4.90;99.90;;;;;;4685178;30;20478;-83
2022/11/26 05:45:06;;;;;;;7.93;3.15;;;4.90;99.90;;;;;;4684757;30;20053;-84
2022/11/26 05:47:33;;;;;;;4.32;3.92;;;4.90;99.90;;;;;;4700332;30;20042;-84
2022/11/26 05:50:01;;;;;;;10.82;5.97;;;5.00;99.90;;;;;;4698755;30;20143;-83
2022/11/26 05:52:28;;;;;;;9.38;3.38;;;4.90;99.90;;;;;;4684786;30;20065;-83
2022/11/26 05:55:02;;;;;;;6.00;3.83;;;4.90;99.90;;;;;;4699349;30;20147;-83
2022/11/26 05:57:29;;;;;;;15.65;4.60;;;4.90;99.90;;;;;;4699471;30;20065;-83
2022/11/26 05:59:56;;;;;;;4.00;3.67;;;4.90;99.90;;;;;;4698532;30;20046;-84
2022/11/26 06:02:24;;;;;;;6.00;4.00;;;4.90;99.90;;;;;;4700462;30;20053;-84
2022/11/26 06:04:51;;;;;;;9.32;4.55;;;4.90;99.90;;;;;;4699801;30;20520;-84
2022/11/26 06:07:19;;;;;;;9.13;5.28;;;4.80;99.90;;;;;;4699714;30;20050;-84
2022/11/26 06:09:46;;;;;;;4.72;4.00;;;4.80;99.90;;;;;;4670536;30;20061;-84
2022/11/26 06:12:13;;;;;;;5.50;3.55;;;4.80;99.90;;;;;;4683343;30;20050;-84
2022/11/26 06:14:41;;;;;;;4.75;3.72;;;4.80;99.90;;;;;;4681856;30;20061;-84
2022/11/26 06:17:10;;;;;;;5.70;3.45;;;4.90;99.90;;;;;;4681316;30;20061;-83
2022/11/26 06:19:38;;;;;;;5.10;3.45;;;4.90;99.90;;;;;;4682397;30;20068;-83
2022/11/26 06:22:05;;;;;;;5.30;3.03;;;4.90;99.90;;;;;;4682889;30;20061;-84
2022/11/26 06:24:33;;;;;;;5.97;3.58;;;4.90;99.90;;;;;;4681984;30;20073;-88
2022/11/26 06:27:01;;;;;;;11.88;6.13;;;4.90;99.90;;;;;;4681604;30;20065;-86
2022/11/26 06:29:28;;;;;;;4.07;3.53;;;4.80;99.90;;;;;;4682706;30;20409;-88
2022/11/26 06:31:55;;;;;;;3.20;3.00;;;4.80;99.90;;;;;;4681014;30;20053;-88
2022/11/26 06:34:23;;;;;;;4.65;4.20;;;4.80;99.90;;;;;;4680876;30;20394;-88
2022/11/26 06:36:50;;;;;;;4.50;3.15;;;4.80;99.90;;;;;;4681630;30;20050;-88
2022/11/26 06:39:18;;;;;;;3.88;3.20;;;4.80;99.90;;;;;;4679822;30;20057;-87
2022/11/26 06:41:47;;;;;;;7.20;5.68;;;4.80;99.90;;;;;;4681171;30;20054;-88
2022/11/26 06:44:15;;;;;;;7.40;3.80;;;4.80;99.90;;;;;;4681592;30;20050;-88
2022/11/26 06:46:42;;;;;;;6.88;5.40;;;4.80;99.90;;;;;;4681297;30;20062;-87
2022/11/26 06:49:10;;;;;;;4.55;3.47;;;4.80;99.90;;;;;;4666158;30;20144;-87
2022/11/26 06:51:37;;;;;;;11.82;4.47;;;4.80;99.90;;;;;;4666503;30;20057;-88
2022/11/26 06:54:05;;;;;;;4.88;4.03;;;4.80;99.90;;;;;;4681062;30;20054;-88
2022/11/26 06:56:34;;;;;;;6.25;4.75;;;4.80;99.90;;;;;;4666384;30;20701;-88
2022/11/26 06:59:01;;;;;;;10.68;4.57;;;4.80;99.90;;;;;;4680446;30;20050;-87
2022/11/26 07:01:29;;;;;;;7.07;4.15;;;4.80;99.90;;;;;;4682198;30;20053;-88
2022/11/26 07:03:56;;;;;;;12.05;4.93;;;4.80;99.90;;;;;;4666051;30;20409;-87
2022/11/26 07:06:26;;;;;;;9.60;3.80;;;4.80;99.90;;;;;;4680992;30;20504;-88
2022/11/26 07:08:56;;;;;;;6.80;4.82;;;4.80;99.90;;;;;;4666155;30;20421;-87
2022/11/26 07:11:24;;;;;;;4.57;4.13;;;4.80;99.90;;;;;;4681320;30;20061;-88
2022/11/26 07:13:52;;;;;;;12.13;6.60;;;4.90;99.90;;;;;;4666660;30;20054;-89
2022/11/26 07:16:20;;;;;;;7.55;4.40;;;4.90;99.90;;;;;;4666132;30;20065;-87
2022/11/26 07:18:53;;;;;;;10.55;5.05;;;4.90;99.90;;;;;;4681714;30;20077;-87
2022/11/26 07:21:29;;;;;;;5.40;3.73;;;4.90;99.90;;;;;;4666450;30;20058;-87
2022/11/26 07:23:57;;;;;;;7.65;4.63;;;4.90;99.90;;;;;;4680437;30;20778;-86
2022/11/26 07:26:24;;;;;;;4.30;3.35;;;4.90;99.90;;;;;;4680978;30;20053;-88
2022/11/26 07:28:52;;;;;;;4.30;3.90;;;4.90;99.90;;;;;;4665573;30;20061;-87
2022/11/26 07:31:21;;;;;;;7.45;3.38;;;4.90;99.90;;;;;;4680286;30;20069;-86
2022/11/26 07:33:49;;;;;;;4.15;3.38;;;5.00;99.90;;;;;;4661140;30;20049;-87
2022/11/26 07:36:23;;;;;;;5.63;3.60;;;4.90;99.90;;;;;;4678937;30;20060;-87
2022/11/26 07:38:54;;;;;;;4.70;4.30;;;4.90;99.90;;;;;;4682118;30;20050;-87
2022/11/26 07:41:22;;;;;;;12.33;8.83;;;4.90;99.90;;;;;;4683427;30;20045;-88
2022/11/26 07:43:50;;;;;;;8.32;4.70;;;4.90;99.90;;;;;;4682837;30;20054;-87
2022/11/26 07:46:20;;;;;;;5.60;3.85;;;4.90;99.90;;;;;;4672729;30;20054;-88
2022/11/26 07:48:48;;;;;;;5.65;3.45;;;4.80;99.90;;;;;;4687487;30;20056;-84
2022/11/26 07:51:22;;;;;;;7.53;4.55;;;4.90;99.90;;;;;;4669338;30;20053;-83
2022/11/26 07:53:50;;;;;;;8.23;4.53;;;4.80;99.90;;;;;;4665676;30;20062;-83
2022/11/26 07:56:18;;;;;;;6.20;4.95;;;4.80;99.90;;;;;;4699628;30;20556;-83
2022/11/26 07:58:45;;;;;;;6.30;5.22;;;4.80;99.90;;;;;;4701310;30;20057;-82
2022/11/26 08:01:18;;;;;;;7.15;4.95;;;4.80;99.90;;;;;;4685471;30;20054;-82
2022/11/26 08:03:48;;;;;;;5.38;4.07;;;4.80;99.90;;;;;;4671509;30;20050;-82
2022/11/26 08:06:18;;;;;;;6.10;3.55;;;4.80;99.90;;;;;;4686219;30;20050;-83
2022/11/26 08:08:45;;;;;;;5.38;3.97;;;4.80;99.90;;;;;;4671463;30;20054;-83
2022/11/26 08:11:16;;;;;;;4.72;3.63;;;4.80;99.90;;;;;;4686313;30;20066;-83
2022/11/26 08:13:44;;;;;;;6.30;4.47;;;4.90;99.90;;;;;;4686240;30;20060;-82
2022/11/26 08:16:13;;;;;;;6.05;5.45;;;4.80;99.90;;;;;;4685899;30;20437;-82
2022/11/26 08:18:41;;;;;;;7.32;4.13;;;4.80;99.90;;;;;;4701301;30;20068;-82
2022/11/26 08:21:08;;;;;;;8.52;4.32;;;4.80;99.90;;;;;;4701349;30;20421;-81
2022/11/26 08:23:36;;;;;;;4.05;3.65;;;4.80;99.90;;;;;;4700607;30;20147;-82
2022/11/26 08:26:14;;;;;;;5.03;4.25;;;4.90;99.90;;;;;;4669048;30;20069;-82
2022/11/26 08:28:59;;;;;;;5.15;4.32;;;4.90;99.90;;;;;;4668456;30;20049;-82
2022/11/26 08:31:27;;;;;;;13.52;3.95;;;5.00;99.90;;;;;;4654520;30;20050;-82
2022/11/26 08:33:56;;;;;;;8.48;4.07;;;5.00;99.90;;;;;;4668033;30;20540;-82
2022/11/26 08:36:28;;;;;;;4.30;3.67;;;5.10;99.90;;;;;;4654141;30;20058;-82
2022/11/26 08:38:57;;;;;;;6.50;5.68;;;5.20;99.90;;;;;;4684207;30;20061;-84
2022/11/26 08:41:25;;;;;;;8.23;5.85;;;5.30;99.90;;;;;;4677334;30;20510;-84
2022/11/26 08:43:52;;;;;;;4.80;3.00;;;5.30;99.90;;;;;;4717023;30;20048;-83
2022/11/26 08:46:36;;;;;;;6.93;3.47;;;5.40;99.90;;;;;;4716985;30;20058;-82
2022/11/26 08:49:04;;;;;;;6.18;3.75;;;5.40;99.90;;;;;;4700498;30;20054;-85
2022/11/26 08:51:32;;;;;;;6.20;3.15;;;5.40;99.90;;;;;;4685531;30;20041;-83
2022/11/26 08:54:32;;;;;;;8.32;5.55;;;5.40;99.90;;;;;;4700115;30;20053;-83
2022/11/26 08:56:59;;;;;;;4.95;3.58;;;5.40;99.90;;;;;;4684372;30;20065;-78
2022/11/26 08:59:26;;;;;;;4.22;2.83;;;5.40;99.90;;;;;;4699539;30;20053;-78
2022/11/26 09:01:54;;;;;;;6.47;4.15;;;5.40;99.90;;;;;;4697582;30;20497;-77
2022/11/26 09:04:21;;;;;;;6.72;4.40;;;5.40;99.90;;;;;;4699375;30;20424;-78
2022/11/26 09:06:49;;;;;;;4.05;2.78;;;5.40;99.90;;;;;;4700312;30;20058;-79
2022/11/26 09:09:18;;;;;;;3.55;3.10;;;5.40;99.90;;;;;;4683786;30;20053;-81
2022/11/26 09:11:55;;;;;;;9.93;5.45;;;5.40;99.90;;;;;;4684387;30;20054;-83
2022/11/26 09:14:24;;;;;;;5.55;3.13;;;5.40;99.90;;;;;;4699062;30;20061;-79
2022/11/26 09:16:56;;;;;;;7.05;3.85;;;5.40;99.90;;;;;;4698530;30;20450;-80
2022/11/26 09:19:24;;;;;;;3.83;2.90;;;5.40;99.90;;;;;;4698017;30;20165;-80
2022/11/26 09:21:51;;;;;;;6.40;3.88;;;5.40;99.90;;;;;;4698428;30;20061;-79
2022/11/26 09:24:20;;;;;;;3.58;3.30;;;5.40;99.90;;;;;;4699069;30;20061;-79
2022/11/26 09:26:48;;;;;;;7.20;4.57;;;5.50;99.90;;;;;;4699208;30;20405;-78
2022/11/26 09:29:19;;;;;;;5.65;3.85;;;5.50;99.90;;;;;;4699010;30;20060;-79
2022/11/26 09:31:47;;;;;;;4.18;3.50;;;5.50;99.90;;;;;;4699158;30;20405;-78
2022/11/26 09:34:35;;;;;;;5.82;5.05;;;5.50;99.90;;;;;;4699204;30;20056;-78
2022/11/26 09:37:03;;;;;;;9.93;4.15;;;5.50;99.90;;;;;;4698968;30;20726;-79
2022/11/26 09:39:31;;;;;;;3.70;3.40;;;5.50;99.90;;;;;;4697386;30;20094;-79
2022/11/26 09:42:10;;;;;;;3.88;3.35;;;5.50;99.90;;;;;;4699104;30;20053;-78
2022/11/26 09:44:56;;;;;;;5.82;2.25;;;5.50;99.90;;;;;;4698475;30;20057;-78
2022/11/26 09:47:27;;;;;;;4.00;2.75;;;5.50;99.90;;;;;;4698488;30;20056;-78
2022/11/26 09:49:59;;;;;;;3.40;2.20;;;5.40;99.90;;;;;;4698816;30;20050;-78
2022/11/26 09:52:32;;;;;;;2.60;2.17;;;5.40;99.90;;;;;;4698680;30;20501;-79
2022/11/26 09:55:12;;;;;;;3.60;2.38;;;5.50;99.90;;;;;;4699222;30;20491;-78
2022/11/26 09:57:43;;;;;;;4.82;3.35;;;5.40;99.90;;;;;;4682567;30;20057;-79
2022/11/26 10:00:33;;;;;;;6.20;2.00;;;5.40;99.90;;;;;;4681815;30;20050;-79
2022/11/26 10:03:00;;;;;;;3.22;3.00;;;5.40;99.90;;;;;;4697045;30;20053;-78
2022/11/26 10:05:40;;;;;;;3.75;2.67;;;5.40;99.90;;;;;;4685049;30;20050;-79
2022/11/26 10:08:33;;;;;;;1.73;1.63;;;5.50;99.90;;;;;;4672527;30;20053;-78
2022/11/26 10:11:08;;;;;;;4.90;2.95;;;5.60;99.90;;;;;;4682725;30;20054;-77
2022/11/26 10:14:03;;;;;;;5.75;3.05;;;5.70;99.90;;;;;;4682490;30;20058;-79
2022/11/26 10:16:48;;;;;;;4.68;2.67;;;5.70;99.90;;;;;;4698288;30;20064;-79
2022/11/26 10:19:57;;;;;;;2.88;2.67;;;5.80;99.90;;;;;;4698105;30;20497;-79
2022/11/26 10:22:56;;;;;;;4.72;2.13;;;5.80;99.90;;;;;;4691069;30;20068;-78
2022/11/26 10:25:28;;;;;;;2.60;2.40;;;5.90;99.90;;;;;;4681145;30;20061;-80
2022/11/26 10:27:57;;;;;;;7.25;3.20;;;6.10;99.90;;;;;;4680206;30;20443;-80
2022/11/26 10:30:27;;;;;;;3.35;3.05;;;6.20;99.90;;;;;;4682341;30;20065;-81
2022/11/26 10:32:58;;;;;;;4.38;4.00;;;6.20;99.90;;;;;;4681526;30;20054;-82
2022/11/26 10:35:27;;;;;;;;;;;6.30;99.90;;;;;;4688340;30;20069;-81
2022/11/26 10:37:56;;;;;;;4.35;2.55;;;6.30;99.90;;;;;;4680896;30;20484;-81
2022/11/26 10:40:26;;;;;;;7.43;3.88;;;6.20;99.90;;;;;;4691741;30;20054;-81
2022/11/26 10:43:16;;;;;;;4.70;2.63;;;6.30;99.90;;;;;;4699400;30;20974;-84
2022/11/26 10:45:56;;;;;;;3.05;2.78;;;6.40;99.90;;;;;;4684031;30;20053;-82
2022/11/26 10:48:31;;;;;;;2.88;2.58;;;6.40;99.90;;;;;;4698979;30;20057;-83
2022/11/26 10:51:05;;;;;;;4.30;3.60;;;6.40;99.90;;;;;;4670056;30;20061;-83
2022/11/26 10:54:06;;;;;;;3.58;2.90;;;6.40;99.90;;;;;;4683383;30;20076;-82
2022/11/26 10:56:45;;;;;;;12.07;3.33;;;6.40;99.90;;;;;;4683706;30;20045;-83
2022/11/26 10:59:21;;;;;;;8.07;3.47;;;6.40;99.90;;;;;;4698873;30;20057;-83
2022/11/26 11:01:50;;;;;;;4.57;2.88;;;6.40;99.90;;;;;;4669962;30;20054;-82
2022/11/26 11:04:30;;;;;;;4.47;3.28;;;6.40;99.90;;;;;;4682958;30;20401;-83
2022/11/26 11:06:58;;;;;;;4.00;3.70;;;6.50;99.90;;;;;;4699216;30;20061;-82
2022/11/26 11:09:30;;;;;;;4.97;3.22;;;6.70;99.90;;;;;;4698643;30;20057;-82
2022/11/26 11:12:12;;;;;;;5.47;3.47;;;6.80;99.90;;;;;;4698950;30;20050;-83
2022/11/26 11:14:40;;;;;;;;;;;6.80;99.90;;;;;;4684170;30;20409;-82
2022/11/26 11:17:35;;;;;;;3.67;3.38;;;6.90;99.90;;;;;;4698476;30;19927;-83
2022/11/26 11:20:30;;;;;;;4.95;3.50;;;7.10;99.90;;;;;;4698882;30;20080;-82
2022/11/26 11:23:09;;;;;;;4.72;3.65;;;7.10;99.90;;;;;;4684056;30;20114;-82
2022/11/26 11:25:46;;;;;;;4.20;3.45;;;7.10;99.90;;;;;;4683461;30;20058;-82
2022/11/26 11:28:29;;;;;;;7.63;4.68;;;6.90;99.90;;;;;;4701363;30;20073;-77
2022/11/26 11:31:18;;;;;;;3.85;3.45;;;6.80;99.90;;;;;;4702295;30;20057;-79
2022/11/26 11:33:46;;;;;;;9.13;3.53;;;6.70;99.90;;;;;;4685465;30;20061;-77
2022/11/26 11:36:17;;;;;;;4.38;3.45;;;6.50;99.90;;;;;;4701794;30;20049;-84
2022/11/26 11:39:03;;;;;;;22.35;5.10;;;6.40;99.90;;;;;;4702573;30;20049;-83
2022/11/26 11:41:44;;;;;;;6.95;3.92;;;6.30;99.90;;;;;;4700510;30;20061;-82
2022/11/26 11:44:21;;;;;;;11.27;4.85;;;6.10;99.90;;;;;;4701825;30;20061;-83
2022/11/26 11:47:21;;;;;;;5.65;3.75;;;6.10;99.90;;;;;;4702279;30;20099;-84
2022/11/26 11:50:03;;;;;;;6.95;4.10;;;6.00;99.90;;;;;;4687350;30;20057;-86
2022/11/26 11:53:08;;;;;;;4.35;3.58;;;6.00;99.90;;;;;;4701981;30;20050;-85
2022/11/26 11:55:35;;;;;;;5.35;4.50;;;6.00;99.90;;;;;;4701848;30;20049;-83
2022/11/26 11:58:34;;;;;;;6.50;4.05;;;6.00;99.90;;;;;;4702267;30;20446;-83
2022/11/26 12:01:39;;;;;;;10.38;5.13;;;5.90;99.90;;;;;;4677026;30;20374;-84
2022/11/26 12:04:18;;;;;;;7.60;4.07;;;5.80;99.90;;;;;;4683099;30;20065;-85
2022/11/26 12:06:59;;;;;;;9.88;4.80;;;5.80;99.90;;;;;;4684845;30;20501;-81
2022/11/26 12:09:38;;;;;;;6.93;5.05;;;5.80;99.90;;;;;;4682685;30;20054;-81
2022/11/26 12:12:47;;;;;;;7.47;4.18;;;5.80;99.90;;;;;;4679302;30;20068;-81
2022/11/26 12:15:20;;;;;;;12.90;4.25;;;5.70;99.90;;;;;;4652964;30;20073;-82
2022/11/26 12:18:16;;;;;;;8.65;3.60;;;5.70;99.90;;;;;;4686097;30;20061;-84
2022/11/26 12:20:48;;;;;;;9.35;5.07;;;5.80;99.90;;;;;;4685899;30;20064;-85
2022/11/26 12:23:15;;;;;;;;;;;5.80;99.90;;;;;;4686470;30;20054;-86
2022/11/26 12:26:05;;;;;;;6.03;4.47;;;5.90;99.90;;;;;;4686951;30;20405;-84
2022/11/26 12:28:50;;;;;;;6.13;3.22;;;6.30;99.90;;;;;;4700921;30;20057;-84
2022/11/26 12:31:50;;;;;;;12.35;4.75;;;6.90;99.90;;;;;;4671097;30;20072;-84
2022/11/26 12:34:38;;;;;;;10.65;4.55;;;6.90;99.90;;;;;;4692674;30;20046;-82
2022/11/26 12:37:30;;;;;;;9.00;4.63;;;7.00;99.90;;;;;;4684898;30;20389;-83
2022/11/26 12:40:15;;;;;;;10.40;4.75;;;6.80;99.90;;;;;;4700424;30;20049;-83
2022/11/26 12:42:53;;;;;;;6.63;6.03;;;7.00;99.90;;;;;;4700403;30;20080;-83
2022/11/26 12:45:47;;;;;;;4.07;2.97;;;7.30;99.90;;;;;;4700970;30;20500;-83
2022/11/26 12:48:32;;;;;;;6.57;3.65;;;7.40;99.90;;;;;;4685439;30;20058;-84
2022/11/26 12:51:14;;;;;;;14.68;5.50;;;7.30;99.90;;;;;;4685842;30;20049;-83
2022/11/26 12:54:13;;;;;;;6.15;3.55;;;7.10;99.90;;;;;;4657222;30;20575;-84
2022/11/26 12:57:18;;;;;;;3.65;3.17;;;7.10;99.90;;;;;;4700781;30;20053;-83
2022/11/26 12:59:55;;;;;;;8.30;4.32;;;6.90;99.90;;;;;;4646745;30;20069;-84
2022/11/26 13:02:25;;;;;;;5.32;4.75;;;6.80;99.90;;;;;;4678875;30;20067;-84
2022/11/26 13:04:53;;;;;;;9.27;4.93;;;6.70;99.90;;;;;;4677850;30;20050;-84
2022/11/26 13:07:33;;;;;;;8.27;6.00;;;6.70;99.90;;;;;;4694894;30;20084;-83
2022/11/26 13:10:37;;;;;;;5.07;4.38;;;6.60;99.90;;;;;;4685271;30;20076;-83
2022/11/26 13:13:38;;;;;;;7.38;3.33;;;6.60;99.90;;;;;;4692266;30;20893;-82
2022/11/26 13:16:45;;;;;;;4.57;3.72;;;6.50;99.90;;;;;;4670474;30;20045;-84
2022/11/26 13:19:34;;;;;;;7.82;3.30;;;6.50;99.90;;;;;;4670289;30;20492;-83
2022/11/26 13:22:05;;;;;;;7.18;3.92;;;6.50;99.90;;;;;;4685483;30;20049;-83
2022/11/26 13:24:59;;;;;;;4.03;3.35;;;6.40;99.90;;;;;;4670817;30;20394;-83
2022/11/26 13:27:54;;;;;;;10.75;5.47;;;6.40;99.90;;;;;;4685176;30;20056;-86
2022/11/26 13:30:59;;;;;;;7.20;5.63;;;6.40;99.90;;;;;;4685374;30;20420;-87
2022/11/26 13:34:17;;;;;;;4.57;3.42;;;6.40;99.90;;;;;;4684174;30;20065;-89